createdAt,value
2019-03-17T00:01:22.424Z,59.88
2019-03-17T00:03:50.818Z,59.95
2019-03-17T00:06:19.251Z,59.55
2019-03-17T00:08:47.787Z,59.38
2019-03-17T00:11:16.224Z,59.18
2019-03-17T00:13:44.651Z,59.15
2019-03-17T00:16:13.096Z,58.95
2019-03-17T00:18:41.514Z,59.00
2019-03-17T00:21:09.951Z,58.74
2019-03-17T00:23:38.398Z,58.48
2019-03-17T00:26:06.829Z,57.30
2019-03-17T00:28:35.279Z,56.32
2019-03-17T00:31:03.696Z,56.15
2019-03-17T00:33:32.111Z,55.92
2019-03-17T00:36:03.588Z,55.78
2019-03-17T00:38:32.022Z,55.93
2019-03-17T00:41:00.440Z,56.04
2019-03-17T00:43:28.889Z,54.84
2019-03-17T00:45:59.773Z,54.57
2019-03-17T00:48:28.359Z,53.90
2019-03-17T00:50:56.803Z,53.22
2019-03-17T00:53:25.268Z,53.24
2019-03-17T00:55:53.666Z,53.12
2019-03-17T00:58:22.086Z,52.58
2019-03-17T01:00:50.588Z,52.34
2019-03-17T01:03:19.003Z,52.75
2019-03-17T01:05:47.493Z,53.73
2019-03-17T01:08:15.903Z,53.08
2019-03-17T01:10:44.426Z,52.81
2019-03-17T01:13:12.897Z,52.52
2019-03-17T01:15:41.314Z,52.66
2019-03-17T01:18:09.718Z,52.72
2019-03-17T01:20:38.136Z,52.15
2019-03-17T01:23:06.531Z,53.48
2019-03-17T01:25:35.018Z,51.98
2019-03-17T01:28:03.424Z,52.44
2019-03-17T01:30:31.877Z,52.60
2019-03-17T01:33:00.322Z,54.23
2019-03-17T01:35:28.737Z,54.17
2019-03-17T01:37:57.137Z,52.96
2019-03-17T01:40:25.665Z,52.97
2019-03-17T01:42:54.067Z,53.52
2019-03-17T01:45:22.544Z,53.80
2019-03-17T01:47:50.984Z,53.73
2019-03-17T01:50:19.406Z,53.47
2019-03-17T01:52:47.810Z,53.66
2019-03-17T01:55:16.250Z,53.45
2019-03-17T01:57:44.644Z,53.03
2019-03-17T02:00:13.951Z,53.46
2019-03-17T02:02:42.382Z,53.51
2019-03-17T02:05:21.515Z,54.04
2019-03-17T02:07:41.074Z,54.07
2019-03-17T02:10:09.584Z,54.22
2019-03-17T02:12:38.060Z,54.42
2019-03-17T02:15:07.842Z,54.60
2019-03-17T02:17:36.277Z,54.37
2019-03-17T02:20:06.951Z,54.51
2019-03-17T02:22:35.350Z,54.84
2019-03-17T02:25:04.224Z,54.56
2019-03-17T02:27:32.662Z,54.42
2019-03-17T02:30:01.063Z,54.21
2019-03-17T02:32:29.516Z,54.44
2019-03-17T02:34:57.932Z,54.93
2019-03-17T02:37:26.342Z,54.93
2019-03-17T02:39:54.748Z,55.01
2019-03-17T02:42:23.183Z,54.93
2019-03-17T02:44:51.596Z,54.62
2019-03-17T02:47:20.006Z,54.77
2019-03-17T02:49:48.449Z,54.78
2019-03-17T02:52:16.951Z,54.92
2019-03-17T02:54:45.453Z,54.49
2019-03-17T02:57:13.950Z,54.79
2019-03-17T02:59:42.356Z,55.13
2019-03-17T03:02:10.810Z,55.99
2019-03-17T03:04:39.207Z,55.41
2019-03-17T03:07:07.618Z,55.46
2019-03-17T03:09:36.059Z,55.64
2019-03-17T03:12:04.514Z,55.12
2019-03-17T03:14:32.974Z,55.72
2019-03-17T03:17:01.438Z,55.73
2019-03-17T03:19:29.834Z,56.20
2019-03-17T03:21:58.242Z,56.21
2019-03-17T03:24:26.740Z,56.31
2019-03-17T03:26:55.149Z,55.91
2019-03-17T03:29:27.135Z,55.96
2019-03-17T03:31:53.770Z,56.43
2019-03-17T03:34:22.287Z,56.45
2019-03-17T03:36:50.683Z,56.85
2019-03-17T03:39:19.121Z,57.28
2019-03-17T03:41:47.544Z,57.05
2019-03-17T03:44:15.989Z,56.97
2019-03-17T03:46:44.410Z,57.42
2019-03-17T03:49:12.842Z,57.27
2019-03-17T03:51:41.262Z,56.86
2019-03-17T03:54:09.677Z,57.04
2019-03-17T03:56:38.112Z,57.16
2019-03-17T03:59:06.560Z,57.50
2019-03-17T04:01:34.961Z,57.52
2019-03-17T04:04:03.373Z,57.14
2019-03-17T04:06:31.775Z,56.40
2019-03-17T04:09:00.208Z,56.65
2019-03-17T04:11:28.617Z,56.32
2019-03-17T04:13:57.035Z,56.72
2019-03-17T04:16:25.462Z,56.86
2019-03-17T04:18:53.870Z,57.25
2019-03-17T04:21:22.279Z,57.27
2019-03-17T04:23:50.709Z,57.80
2019-03-17T04:26:19.143Z,57.86
2019-03-17T04:28:47.563Z,58.32
2019-03-17T04:31:15.983Z,58.25
2019-03-17T04:33:44.476Z,58.48
2019-03-17T04:36:12.968Z,58.52
2019-03-17T04:38:43.800Z,58.77
2019-03-17T04:41:11.567Z,58.54
2019-03-17T04:43:40.016Z,58.03
2019-03-17T04:46:08.452Z,57.31
2019-03-17T04:48:36.884Z,57.47
2019-03-17T04:51:05.306Z,57.42
2019-03-17T04:53:33.788Z,57.33
2019-03-17T04:56:02.186Z,57.55
2019-03-17T04:58:30.632Z,58.06
2019-03-17T05:00:59.037Z,58.06
2019-03-17T05:03:27.494Z,58.24
2019-03-17T05:05:55.908Z,57.71
2019-03-17T05:08:24.315Z,57.49
2019-03-17T05:10:52.776Z,57.35
2019-03-17T05:13:21.178Z,57.45
2019-03-17T05:15:49.908Z,57.31
2019-03-17T05:18:18.497Z,57.44
2019-03-17T05:20:46.880Z,57.19
2019-03-17T05:23:15.296Z,57.36
2019-03-17T05:25:43.804Z,57.57
2019-03-17T05:28:12.232Z,57.47
2019-03-17T05:30:40.623Z,57.87
2019-03-17T05:33:09.119Z,57.86
2019-03-17T05:35:37.628Z,57.67
2019-03-17T05:38:05.989Z,57.98
2019-03-17T05:40:34.503Z,57.76
2019-03-17T05:43:02.914Z,57.86
2019-03-17T05:45:31.360Z,57.70
2019-03-17T05:47:59.766Z,58.11
2019-03-17T05:50:28.192Z,57.83
2019-03-17T05:52:56.633Z,57.95
2019-03-17T05:55:25.037Z,57.81
2019-03-17T05:57:53.485Z,57.64
2019-03-17T06:00:21.954Z,58.00
2019-03-17T06:02:50.375Z,58.06
2019-03-17T06:05:18.852Z,57.71
2019-03-17T06:07:47.397Z,57.51
2019-03-17T06:10:15.861Z,57.25
2019-03-17T06:12:44.328Z,57.01
2019-03-17T06:15:12.840Z,56.92
2019-03-17T06:17:41.252Z,56.57
2019-03-17T06:20:11.415Z,56.65
2019-03-17T06:22:39.843Z,56.76
2019-03-17T06:25:09.497Z,56.53
2019-03-17T06:27:37.933Z,56.49
2019-03-17T06:30:09.376Z,56.42
2019-03-17T06:32:37.800Z,56.39
2019-03-17T06:35:06.581Z,56.04
2019-03-17T06:37:35.024Z,55.93
2019-03-17T06:40:04.533Z,56.21
2019-03-17T06:42:33.077Z,56.08
2019-03-17T06:45:01.493Z,55.64
2019-03-17T06:47:29.893Z,55.63
2019-03-17T06:49:58.336Z,56.03
2019-03-17T06:52:26.748Z,56.82
2019-03-17T06:54:55.205Z,56.15
2019-03-17T06:57:23.583Z,56.19
2019-03-17T06:59:52.059Z,56.27
2019-03-17T07:02:20.482Z,56.74
2019-03-17T07:04:49.042Z,56.42
2019-03-17T07:07:17.483Z,56.31
2019-03-17T07:09:45.885Z,56.33
2019-03-17T07:12:14.391Z,56.85
2019-03-17T07:14:42.826Z,57.46
2019-03-17T07:17:11.256Z,56.86
2019-03-17T07:19:39.843Z,56.47
2019-03-17T07:22:08.377Z,56.84
2019-03-17T07:24:36.792Z,56.39
2019-03-17T07:27:05.259Z,56.05
2019-03-17T07:29:33.615Z,56.06
2019-03-17T07:32:02.029Z,56.38
2019-03-17T07:34:30.512Z,56.13
2019-03-17T07:36:58.908Z,56.12
2019-03-17T07:39:27.409Z,56.04
2019-03-17T07:41:55.849Z,55.93
2019-03-17T07:44:24.379Z,55.43
2019-03-17T07:46:52.840Z,56.05
2019-03-17T07:49:21.437Z,55.26
2019-03-17T07:51:49.879Z,54.50
2019-03-17T07:54:19.220Z,53.74
2019-03-17T07:56:47.664Z,54.84
2019-03-17T07:59:16.119Z,55.00
2019-03-17T08:01:44.527Z,55.66
2019-03-17T08:04:12.968Z,54.90
2019-03-17T08:06:41.429Z,54.65
2019-03-17T08:09:09.931Z,53.54
2019-03-17T08:11:38.356Z,52.37
2019-03-17T08:14:06.871Z,52.81
2019-03-17T08:16:35.309Z,53.79
2019-03-17T08:19:03.753Z,54.92
2019-03-17T08:21:32.103Z,54.36
2019-03-17T08:24:00.622Z,54.55
2019-03-17T08:26:29.035Z,54.80
2019-03-17T08:28:57.443Z,53.71
2019-03-17T08:31:26.083Z,52.17
2019-03-17T08:33:54.528Z,49.21
2019-03-17T08:36:23.028Z,48.53
2019-03-17T08:38:51.442Z,48.97
2019-03-17T08:41:19.833Z,49.52
2019-03-17T08:43:54.096Z,48.75
2019-03-17T08:46:18.519Z,43.20
2019-03-17T08:48:47.003Z,45.05
2019-03-17T08:51:15.470Z,48.32
2019-03-17T08:53:43.869Z,46.41
2019-03-17T08:56:12.344Z,51.12
2019-03-17T08:58:40.829Z,51.16
2019-03-17T09:01:09.285Z,50.03
2019-03-17T09:03:37.848Z,44.54
2019-03-17T09:06:06.217Z,49.62
2019-03-17T09:08:52.784Z,50.63
2019-03-17T09:11:21.211Z,53.26
2019-03-17T09:13:49.641Z,53.44
2019-03-17T09:16:18.173Z,54.24
2019-03-17T09:18:46.792Z,54.71
2019-03-17T09:21:15.249Z,55.33
2019-03-17T09:23:43.682Z,55.43
2019-03-17T09:26:12.229Z,56.25
2019-03-17T09:28:40.717Z,56.11
2019-03-17T09:31:09.315Z,56.55
2019-03-17T09:33:37.778Z,56.56
2019-03-17T09:36:06.190Z,56.54
2019-03-17T09:38:46.392Z,57.47
2019-03-17T09:41:04.979Z,57.79
2019-03-17T09:43:33.497Z,58.12
2019-03-17T09:46:01.903Z,57.87
2019-03-17T09:48:30.324Z,57.87
2019-03-17T09:50:58.745Z,58.42
2019-03-17T09:53:28.569Z,58.97
2019-03-17T09:55:57.278Z,59.29
2019-03-17T09:58:25.784Z,59.17
2019-03-17T10:00:54.190Z,59.92
2019-03-17T10:03:22.616Z,59.53
2019-03-17T10:05:51.060Z,59.81
2019-03-17T10:08:19.593Z,59.27
2019-03-17T10:10:48.055Z,59.21
2019-03-17T10:13:16.542Z,59.29
2019-03-17T10:15:45.036Z,59.00
2019-03-17T10:18:13.499Z,60.00
2019-03-17T10:20:41.979Z,59.69
2019-03-17T10:23:10.454Z,59.36
2019-03-17T10:25:38.889Z,60.25
2019-03-17T10:28:07.496Z,60.54
2019-03-17T10:30:35.896Z,60.92
2019-03-17T10:33:07.664Z,61.16
2019-03-17T10:35:36.103Z,62.03
2019-03-17T10:38:04.697Z,61.76
2019-03-17T10:40:33.114Z,63.04
2019-03-17T10:43:01.575Z,62.95
2019-03-17T10:45:29.998Z,63.69
2019-03-17T10:47:58.671Z,65.19
2019-03-17T10:50:27.109Z,65.73
2019-03-17T10:52:56.007Z,67.95
2019-03-17T10:55:24.399Z,67.98
2019-03-17T10:57:52.797Z,69.05
2019-03-17T11:00:22.173Z,69.34
2019-03-17T11:02:50.682Z,68.39
2019-03-17T11:05:19.074Z,68.43
2019-03-17T11:07:47.550Z,69.48
2019-03-17T11:10:16.613Z,69.35
2019-03-17T11:12:45.018Z,70.41
2019-03-17T11:15:17.860Z,69.65
2019-03-17T11:17:46.435Z,70.14
2019-03-17T11:20:15.438Z,70.74
2019-03-17T11:22:43.865Z,70.36
2019-03-17T11:25:17.532Z,69.52
2019-03-17T11:27:45.989Z,69.72
2019-03-17T11:30:18.603Z,70.37
2019-03-17T11:32:47.003Z,69.55
2019-03-17T11:35:15.527Z,68.97
2019-03-17T11:37:44.054Z,69.06
2019-03-17T11:40:15.519Z,70.17
2019-03-17T11:42:44.058Z,72.23
2019-03-17T11:45:14.329Z,71.71
2019-03-17T11:47:42.965Z,71.89
2019-03-17T11:50:14.237Z,72.55
2019-03-17T11:52:42.829Z,70.90
2019-03-17T11:55:12.018Z,70.56
2019-03-17T11:57:40.857Z,69.10
2019-03-17T12:00:17.173Z,67.34
2019-03-17T12:02:45.911Z,67.08
2019-03-17T12:05:14.511Z,65.07
2019-03-17T12:07:42.937Z,64.66
2019-03-17T12:10:14.381Z,64.10
2019-03-17T12:12:42.886Z,63.70
2019-03-17T12:15:14.358Z,62.92
2019-03-17T12:17:42.889Z,64.05
2019-03-17T12:20:15.891Z,64.01
2019-03-17T12:22:44.464Z,63.95
2019-03-17T12:25:14.979Z,64.19
2019-03-17T12:27:43.369Z,64.02
2019-03-17T12:30:23.599Z,64.20
2019-03-17T12:32:53.424Z,64.39
2019-03-17T12:35:22.107Z,64.68
2019-03-17T12:37:50.675Z,65.28
2019-03-17T12:40:19.306Z,64.56
2019-03-17T12:42:47.737Z,63.42
2019-03-17T12:45:16.303Z,63.56
2019-03-17T12:47:44.741Z,63.86
2019-03-17T12:50:15.915Z,63.33
2019-03-17T12:52:44.323Z,63.28
2019-03-17T12:55:12.788Z,63.63
2019-03-17T12:57:41.482Z,64.73
2019-03-17T13:00:23.244Z,63.78
2019-03-17T13:02:51.679Z,63.62
2019-03-17T13:05:20.149Z,62.63
2019-03-17T13:07:48.707Z,62.80
2019-03-17T13:10:20.213Z,64.01
2019-03-17T13:12:48.750Z,62.30
2019-03-17T13:15:17.266Z,63.22
2019-03-17T13:17:45.751Z,62.38
2019-03-17T13:20:16.491Z,62.00
2019-03-17T13:22:44.915Z,61.42
2019-03-17T13:25:13.555Z,62.06
2019-03-17T13:27:41.993Z,64.14
2019-03-17T13:30:14.839Z,65.51
2019-03-17T13:32:43.306Z,65.16
2019-03-17T13:35:12.083Z,63.48
2019-03-17T13:37:40.577Z,62.75
2019-03-17T13:40:11.420Z,63.44
2019-03-17T13:42:40.052Z,62.16
2019-03-17T13:45:11.055Z,62.15
2019-03-17T13:47:39.755Z,64.90
2019-03-17T13:50:16.529Z,65.11
2019-03-17T13:52:44.952Z,63.86
2019-03-17T13:55:13.611Z,62.06
2019-03-17T13:57:45.151Z,62.27
2019-03-17T14:00:15.136Z,64.65
2019-03-17T14:02:43.581Z,61.89
2019-03-17T14:05:12.524Z,62.13
2019-03-17T14:07:40.989Z,61.05
2019-03-17T14:10:17.364Z,61.50
2019-03-17T14:12:45.795Z,61.53
2019-03-17T14:15:15.126Z,62.89
2019-03-17T14:17:43.873Z,64.21
2019-03-17T14:20:20.514Z,64.50
2019-03-17T14:22:48.469Z,64.23
2019-03-17T14:25:31.867Z,63.33
2019-03-17T14:28:00.248Z,63.62
2019-03-17T14:30:30.110Z,63.32
2019-03-17T14:32:58.497Z,62.64
2019-03-17T14:35:27.144Z,60.82
2019-03-17T14:37:55.548Z,59.58
2019-03-17T14:40:24.211Z,59.87
2019-03-17T14:42:55.243Z,60.85
2019-03-17T14:45:23.033Z,58.46
2019-03-17T14:47:51.623Z,58.81
2019-03-17T14:50:22.033Z,57.45
2019-03-17T14:52:50.823Z,57.43
2019-03-17T14:55:19.372Z,57.94
2019-03-17T14:57:47.883Z,56.57
2019-03-17T15:00:20.598Z,57.44
2019-03-17T15:02:49.264Z,56.63
2019-03-17T15:05:18.268Z,57.27
2019-03-17T15:07:47.146Z,57.30
2019-03-17T15:10:23.096Z,56.44
2019-03-17T15:12:56.360Z,56.61
2019-03-17T15:15:24.964Z,57.42
2019-03-17T15:20:27.024Z,59.85
2019-03-17T15:22:55.432Z,59.77
2019-03-17T15:25:23.944Z,60.55
2019-03-17T15:27:52.427Z,60.30
2019-03-17T15:30:25.382Z,62.11
2019-03-17T15:32:53.917Z,61.14
2019-03-17T15:35:22.930Z,60.60
2019-03-17T15:37:51.619Z,61.68
2019-03-17T15:40:26.189Z,61.21
2019-03-17T15:42:54.656Z,62.37
2019-03-17T15:45:24.142Z,61.28
2019-03-17T15:47:52.748Z,61.24
2019-03-17T15:50:26.712Z,62.19
2019-03-17T15:52:55.146Z,61.20
2019-03-17T15:55:23.650Z,61.23
2019-03-17T15:57:52.316Z,60.23
2019-03-17T16:00:26.628Z,60.06
2019-03-17T16:02:55.063Z,60.21
2019-03-17T16:05:23.551Z,59.85
2019-03-17T16:07:52.013Z,60.32
2019-03-17T16:10:31.341Z,61.21
2019-03-17T16:12:59.843Z,60.64
2019-03-17T16:15:28.266Z,59.95
2019-03-17T16:17:56.681Z,61.08
2019-03-17T16:20:26.077Z,64.42
2019-03-17T16:22:54.507Z,66.34
2019-03-17T16:25:27.509Z,65.06
2019-03-17T16:27:56.051Z,63.62
2019-03-17T16:30:31.477Z,64.46
2019-03-17T16:33:00.087Z,64.83
2019-03-17T16:35:28.527Z,63.96
2019-03-17T16:37:57.013Z,62.53
2019-03-17T16:40:33.314Z,60.99
2019-03-17T16:43:01.823Z,60.70
2019-03-17T16:45:30.207Z,60.48
2019-03-17T16:47:58.705Z,60.68
2019-03-17T16:50:27.137Z,60.96
2019-03-17T16:52:57.351Z,59.76
2019-03-17T16:55:26.386Z,59.24
2019-03-17T16:57:54.799Z,58.47
2019-03-17T17:00:25.291Z,58.85
2019-03-17T17:02:53.859Z,58.26
2019-03-17T17:05:23.615Z,59.75
2019-03-17T17:07:52.205Z,60.77
2019-03-17T17:10:27.725Z,61.06
2019-03-17T17:12:56.693Z,60.97
2019-03-17T17:15:29.257Z,60.79
2019-03-17T17:17:57.675Z,60.44
2019-03-17T17:20:31.165Z,61.65
2019-03-17T17:22:59.647Z,62.93
2019-03-17T17:25:28.069Z,62.12
2019-03-17T17:27:56.545Z,61.93
2019-03-17T17:30:24.969Z,62.23
2019-03-17T17:32:53.411Z,62.59
2019-03-17T17:35:21.871Z,63.58
2019-03-17T17:37:50.301Z,62.60
2019-03-17T17:40:23.529Z,62.92
2019-03-17T17:42:52.112Z,63.35
2019-03-17T17:45:22.809Z,64.06
2019-03-17T17:47:51.315Z,63.96
2019-03-17T17:50:21.113Z,63.28
2019-03-17T17:52:49.548Z,64.45
2019-03-17T17:55:18.096Z,63.96
2019-03-17T17:57:46.613Z,63.20
2019-03-17T18:00:19.341Z,63.60
2019-03-17T18:02:47.790Z,63.21
2019-03-17T18:05:16.380Z,63.48
2019-03-17T18:07:44.890Z,63.47
2019-03-17T18:10:17.400Z,64.40
2019-03-17T18:12:45.941Z,64.02
2019-03-17T18:15:20.039Z,64.25
2019-03-17T18:17:48.454Z,64.25
2019-03-17T18:20:16.901Z,64.62
2019-03-17T18:22:45.306Z,65.19
2019-03-17T18:25:17.835Z,65.36
2019-03-17T18:27:46.274Z,64.91
2019-03-17T18:30:23.036Z,65.96
2019-03-17T18:32:51.499Z,65.66
2019-03-17T18:35:20.016Z,66.11
2019-03-17T18:37:50.946Z,65.61
2019-03-17T18:40:19.815Z,66.30
2019-03-17T18:42:48.519Z,67.16
2019-03-17T18:45:25.453Z,67.05
2019-03-17T18:47:53.977Z,67.13
2019-03-17T18:50:22.462Z,67.60
2019-03-17T18:52:50.897Z,67.67
2019-03-17T18:55:19.451Z,66.87
2019-03-17T18:57:47.919Z,67.96
2019-03-17T19:00:18.681Z,67.79
2019-03-17T19:02:47.231Z,67.17
2019-03-17T19:05:19.500Z,67.61
2019-03-17T19:07:46.691Z,67.83
2019-03-17T19:10:18.568Z,66.58
2019-03-17T19:12:48.032Z,66.92
2019-03-17T19:15:20.954Z,67.20
2019-03-17T19:17:51.069Z,66.48
2019-03-17T19:20:22.930Z,66.27
2019-03-17T19:22:52.705Z,66.32
2019-03-17T19:25:26.910Z,66.79
2019-03-17T19:27:55.376Z,66.93
2019-03-17T19:30:24.268Z,67.06
2019-03-17T19:32:52.732Z,66.66
2019-03-17T19:35:26.020Z,66.91
2019-03-17T19:37:54.690Z,67.37
2019-03-17T19:40:24.360Z,67.02
2019-03-17T19:42:59.026Z,67.31
2019-03-17T19:45:23.193Z,67.14
2019-03-17T19:47:51.637Z,67.39
2019-03-17T19:50:23.332Z,67.19
2019-03-17T19:52:51.760Z,66.86
2019-03-17T19:55:20.169Z,66.81
2019-03-17T19:57:48.700Z,67.21
2019-03-17T20:00:17.948Z,67.58
2019-03-17T20:02:47.704Z,66.11
2019-03-17T20:05:16.544Z,66.27
2019-03-17T20:07:45.105Z,66.64
2019-03-17T20:10:30.298Z,66.24
2019-03-17T20:13:11.050Z,66.91
2019-03-17T20:15:29.039Z,66.79
2019-03-17T20:17:57.674Z,66.66
2019-03-17T20:20:26.699Z,66.80
2019-03-17T20:22:55.351Z,66.46
2019-03-17T20:25:23.838Z,66.33
2019-03-17T20:27:52.292Z,65.95
2019-03-17T20:30:20.832Z,66.91
2019-03-17T20:32:49.353Z,66.43
2019-03-17T20:35:17.768Z,66.35
2019-03-17T20:37:46.316Z,66.29
2019-03-17T20:40:15.917Z,66.19
2019-03-17T20:42:44.399Z,66.46
2019-03-17T20:45:16.242Z,66.54
2019-03-17T20:47:44.889Z,67.38
2019-03-17T20:50:16.461Z,67.74
2019-03-17T20:52:44.875Z,68.68
2019-03-17T20:55:13.586Z,66.71
2019-03-17T20:57:42.054Z,68.00
2019-03-17T21:00:31.359Z,67.34
2019-03-17T21:02:59.840Z,67.28
2019-03-17T21:05:28.457Z,68.63
2019-03-17T21:07:56.900Z,68.46
2019-03-17T21:10:25.453Z,67.93
2019-03-17T21:12:53.927Z,67.21
2019-03-17T21:15:22.388Z,67.96
2019-03-17T21:17:52.872Z,67.31
2019-03-17T21:20:22.654Z,66.82
2019-03-17T21:22:51.092Z,67.19
2019-03-17T21:25:19.538Z,66.75
2019-03-17T21:27:48.052Z,67.54
2019-03-17T21:30:24.199Z,67.11
2019-03-17T21:32:52.641Z,67.81
2019-03-17T21:35:21.106Z,66.05
2019-03-17T21:37:49.559Z,66.59
2019-03-17T21:40:18.014Z,67.90
2019-03-17T21:42:46.529Z,68.21
2019-03-17T21:45:15.391Z,66.90
2019-03-17T21:47:43.894Z,68.09
2019-03-17T21:50:15.419Z,66.92
2019-03-17T21:52:43.895Z,68.30
2019-03-17T21:55:13.276Z,66.89
2019-03-17T21:57:41.704Z,68.27
2019-03-17T22:00:16.223Z,67.63
2019-03-17T22:02:44.869Z,67.99
2019-03-17T22:05:14.844Z,67.05
2019-03-17T22:07:50.088Z,67.94
2019-03-17T22:10:19.492Z,66.98
2019-03-17T22:12:48.048Z,67.17
2019-03-17T22:15:17.435Z,66.68
2019-03-17T22:17:46.056Z,66.31
2019-03-17T22:20:16.170Z,67.31
2019-03-17T22:22:44.864Z,68.75
2019-03-17T22:25:17.114Z,68.10
2019-03-17T22:27:45.540Z,68.20
2019-03-17T22:30:21.140Z,67.82
2019-03-17T22:32:49.620Z,68.16
2019-03-17T22:35:18.141Z,67.78
2019-03-17T22:37:46.604Z,67.89
2019-03-17T22:40:16.204Z,68.10
2019-03-17T22:42:44.618Z,68.29
2019-03-17T22:45:14.183Z,68.10
2019-03-17T22:47:42.601Z,68.19
2019-03-17T22:50:15.936Z,68.04
2019-03-17T22:52:44.428Z,68.55
2019-03-17T22:55:13.080Z,68.48
2019-03-17T22:57:41.500Z,68.97
2019-03-17T23:00:34.508Z,67.76
2019-03-17T23:03:03.021Z,67.92
2019-03-17T23:05:31.418Z,68.20
2019-03-17T23:07:59.848Z,68.68
2019-03-17T23:10:28.280Z,68.47
2019-03-17T23:12:56.717Z,68.63
2019-03-17T23:15:25.314Z,69.80
2019-03-17T23:17:53.737Z,69.32
2019-03-17T23:20:22.317Z,68.41
2019-03-17T23:22:50.775Z,68.11
2019-03-17T23:25:19.239Z,68.31
2019-03-17T23:27:47.666Z,68.81
2019-03-17T23:30:18.265Z,69.59
2019-03-17T23:32:49.232Z,69.50
2019-03-17T23:35:17.077Z,69.15
2019-03-17T23:37:45.716Z,69.90
2019-03-17T23:40:16.504Z,70.59
2019-03-17T23:42:45.094Z,71.43
2019-03-17T23:45:13.810Z,71.42
2019-03-17T23:47:42.366Z,71.31
2019-03-17T23:50:14.938Z,72.33
2019-03-17T23:52:43.409Z,71.76
2019-03-17T23:55:12.956Z,71.75
2019-03-17T23:57:41.697Z,72.11
